createdAt,value
2018-02-05T00:00:07.861Z,28.87
2018-02-05T00:02:36.914Z,29.73
2018-02-05T00:05:05.176Z,31.43
2018-02-05T00:07:33.474Z,31.33
2018-02-05T00:10:02.567Z,30.60
2018-02-05T00:12:30.829Z,30.53
2018-02-05T00:14:59.235Z,32.63
2018-02-05T00:17:28.275Z,33.37
2018-02-05T00:19:56.554Z,33.27
2018-02-05T00:22:24.839Z,32.73
2018-02-05T00:24:53.094Z,31.37
2018-02-05T00:27:21.484Z,33.23
2018-02-05T00:29:49.779Z,32.00
2018-02-05T00:32:18.058Z,32.33
2018-02-05T00:34:46.326Z,34.67
2018-02-05T00:37:14.610Z,31.60
2018-02-05T00:39:42.858Z,33.70
2018-02-05T00:42:11.133Z,35.47
2018-02-05T00:44:39.410Z,33.70
2018-02-05T00:47:07.785Z,35.27
2018-02-05T00:49:36.066Z,33.87
2018-02-05T00:52:04.339Z,33.50
2018-02-05T00:54:32.595Z,34.90
2018-02-05T00:57:00.916Z,33.70
2018-02-05T00:59:29.171Z,33.60
2018-02-05T01:01:57.460Z,35.27
2018-02-05T01:04:25.770Z,35.23
2018-02-05T01:06:54.098Z,35.00
2018-02-05T01:09:22.384Z,33.37
2018-02-05T01:11:50.911Z,32.33
2018-02-05T01:14:19.113Z,31.97
2018-02-05T01:16:47.561Z,32.07
2018-02-05T01:19:16.611Z,31.57
2018-02-05T01:21:44.888Z,33.57
2018-02-05T01:24:13.172Z,32.37
2018-02-05T01:26:41.458Z,30.83
2018-02-05T01:29:09.745Z,34.13
2018-02-05T01:31:38.754Z,32.57
2018-02-05T01:34:07.045Z,33.60
2018-02-05T01:36:35.533Z,32.83
2018-02-05T01:39:04.534Z,33.90
2018-02-05T01:41:32.800Z,32.67
2018-02-05T01:44:01.134Z,33.87
2018-02-05T01:46:29.385Z,33.90
2018-02-05T01:48:57.704Z,34.73
2018-02-05T01:51:26.014Z,33.87
2018-02-05T01:53:54.373Z,33.70
2018-02-05T01:56:23.406Z,33.47
2018-02-05T01:58:51.726Z,33.33
2018-02-05T02:01:20.095Z,34.13
2018-02-05T02:03:48.386Z,32.47
2018-02-05T02:06:16.826Z,34.17
2018-02-05T02:08:45.096Z,33.20
2018-02-05T02:11:13.393Z,32.30
2018-02-05T02:13:42.525Z,32.37
2018-02-05T02:16:10.767Z,32.57
2018-02-05T02:18:39.828Z,31.97
2018-02-05T02:21:08.158Z,32.87
2018-02-05T02:23:36.436Z,32.40
2018-02-05T02:26:04.737Z,33.40
2018-02-05T02:28:33.097Z,32.07
2018-02-05T02:31:01.466Z,33.07
2018-02-05T02:33:29.727Z,32.23
2018-02-05T02:35:57.991Z,29.70
2018-02-05T02:38:27.114Z,30.00
2018-02-05T02:40:55.418Z,30.23
2018-02-05T02:43:23.698Z,31.60
2018-02-05T02:45:52.098Z,27.83
2018-02-05T02:48:21.151Z,29.47
2018-02-05T02:50:49.406Z,28.43
2018-02-05T02:53:17.685Z,29.90
2018-02-05T02:55:45.933Z,29.77
2018-02-05T02:58:14.246Z,28.77
2018-02-05T03:00:42.542Z,27.07
2018-02-05T03:03:10.805Z,24.40
2018-02-05T03:05:39.079Z,26.10
2018-02-05T03:08:07.367Z,27.37
2018-02-05T03:10:35.639Z,26.37
2018-02-05T03:13:03.884Z,27.33
2018-02-05T03:15:32.194Z,28.87
2018-02-05T03:18:00.463Z,28.30
2018-02-05T03:20:28.975Z,27.63
2018-02-05T03:22:58.041Z,26.30
2018-02-05T03:25:26.298Z,24.27
2018-02-05T03:27:54.573Z,26.40
2018-02-05T03:30:22.856Z,26.33
2018-02-05T03:32:51.156Z,25.73
2018-02-05T03:35:20.941Z,26.70
2018-02-05T03:37:49.355Z,25.33
2018-02-05T03:40:18.578Z,24.43
2018-02-05T03:42:46.864Z,25.43
2018-02-05T03:45:15.135Z,24.50
2018-02-05T03:47:43.411Z,24.43
2018-02-05T03:50:11.902Z,24.47
2018-02-05T03:52:40.179Z,24.03
2018-02-05T03:55:08.470Z,23.23
2018-02-05T03:57:36.758Z,23.83
2018-02-05T04:00:05.452Z,23.33
2018-02-05T04:02:33.695Z,22.47
2018-02-05T04:05:01.988Z,21.83
2018-02-05T04:07:30.262Z,22.90
2018-02-05T04:09:58.514Z,22.83
2018-02-05T04:12:26.880Z,22.67
2018-02-05T04:14:55.145Z,23.43
2018-02-05T04:17:23.425Z,23.57
2018-02-05T04:19:51.694Z,23.13
2018-02-05T04:22:19.974Z,22.57
2018-02-05T04:24:48.222Z,23.07
2018-02-05T04:27:16.534Z,22.63
2018-02-05T04:29:44.791Z,23.20
2018-02-05T04:32:13.067Z,23.67
2018-02-05T04:34:42.399Z,21.97
2018-02-05T04:37:10.694Z,22.40
2018-02-05T04:39:39.776Z,23.00
2018-02-05T04:42:08.059Z,22.47
2018-02-05T04:44:36.355Z,22.20
2018-02-05T04:47:05.387Z,22.70
2018-02-05T04:49:33.664Z,22.67
2018-02-05T04:52:01.920Z,21.20
2018-02-05T04:54:30.199Z,21.83
2018-02-05T04:56:58.555Z,23.87
2018-02-05T04:59:27.616Z,21.90
2018-02-05T05:01:55.874Z,22.23
2018-02-05T05:04:24.145Z,23.13
2018-02-05T05:06:52.601Z,21.83
2018-02-05T05:09:21.097Z,22.50
2018-02-05T05:11:49.342Z,18.97
2018-02-05T05:14:17.620Z,20.27
2018-02-05T05:16:46.641Z,19.50
2018-02-05T05:19:14.884Z,20.33
2018-02-05T05:21:43.165Z,20.33
2018-02-05T05:24:11.435Z,20.50
2018-02-05T05:26:39.711Z,21.23
2018-02-05T05:29:07.995Z,19.90
2018-02-05T05:31:36.256Z,20.33
2018-02-05T05:34:04.540Z,22.13
2018-02-05T05:36:33.569Z,20.93
2018-02-05T05:39:01.880Z,21.13
2018-02-05T05:41:30.150Z,19.93
2018-02-05T05:43:59.223Z,21.25
2018-02-05T05:46:27.595Z,19.30
2018-02-05T05:48:55.868Z,19.40
2018-02-05T05:51:24.146Z,18.50
2018-02-05T05:53:52.453Z,18.47
2018-02-05T05:56:20.856Z,17.87
2018-02-05T05:58:49.129Z,19.13
2018-02-05T06:01:17.379Z,20.40
2018-02-05T06:03:46.426Z,19.00
2018-02-05T06:06:14.790Z,18.30
2018-02-05T06:08:43.086Z,18.97
2018-02-05T06:11:11.326Z,18.27
2018-02-05T06:13:41.492Z,19.50
2018-02-05T06:16:09.747Z,17.17
2018-02-05T06:18:38.075Z,17.80
2018-02-05T06:21:06.326Z,17.20
2018-02-05T06:23:34.615Z,17.10
2018-02-05T06:26:02.914Z,17.20
2018-02-05T06:28:31.182Z,18.57
2018-02-05T06:31:00.367Z,17.93
2018-02-05T06:33:29.412Z,18.00
2018-02-05T06:35:57.670Z,16.97
2018-02-05T06:38:25.964Z,17.80
2018-02-05T06:40:54.244Z,17.87
2018-02-05T06:43:22.515Z,16.93
2018-02-05T06:45:51.630Z,18.63
2018-02-05T06:48:19.887Z,16.87
2018-02-05T06:51:00.099Z,18.73
2018-02-05T06:53:40.962Z,18.10
2018-02-05T06:56:10.989Z,18.93
2018-02-05T06:58:39.248Z,17.60
2018-02-05T07:01:08.295Z,16.97
2018-02-05T07:03:36.574Z,18.10
2018-02-05T07:06:04.861Z,16.87
2018-02-05T07:08:33.129Z,16.83
2018-02-05T07:11:01.406Z,16.77
2018-02-05T07:13:29.718Z,15.83
2018-02-05T07:15:59.004Z,16.73
2018-02-05T07:18:27.651Z,18.07
2018-02-05T07:20:55.908Z,17.77
2018-02-05T07:23:24.195Z,16.00
2018-02-05T07:25:52.498Z,17.27
2018-02-05T07:28:20.771Z,16.43
2018-02-05T07:30:49.068Z,15.40
2018-02-05T07:33:17.318Z,16.20
2018-02-05T07:35:46.414Z,16.77
2018-02-05T07:38:14.693Z,16.07
2018-02-05T07:40:42.963Z,16.53
2018-02-05T07:43:11.275Z,15.87
2018-02-05T07:45:39.734Z,15.80
2018-02-05T07:48:08.030Z,16.75
2018-02-05T07:50:37.092Z,16.97
2018-02-05T07:53:05.511Z,15.63
2018-02-05T07:55:33.816Z,15.10
2018-02-05T07:58:04.094Z,16.20
2018-02-05T08:00:33.162Z,16.27
2018-02-05T08:03:01.434Z,14.70
2018-02-05T08:05:29.703Z,15.13
2018-02-05T08:07:57.990Z,15.30
2018-02-05T08:10:26.259Z,16.27
2018-02-05T08:12:54.589Z,14.53
2018-02-05T08:15:22.842Z,13.80
2018-02-05T08:17:51.178Z,14.63
2018-02-05T08:20:19.482Z,12.73
2018-02-05T08:22:47.734Z,14.03
2018-02-05T08:25:16.821Z,13.80
2018-02-05T08:27:45.115Z,14.43
2018-02-05T08:30:14.192Z,15.88
2018-02-05T08:32:42.439Z,13.97
2018-02-05T08:35:10.776Z,13.30
2018-02-05T08:37:39.840Z,14.13
2018-02-05T08:40:08.178Z,11.87
2018-02-05T08:42:37.694Z,12.73
2018-02-05T08:45:06.044Z,13.67
2018-02-05T08:47:34.300Z,13.20
2018-02-05T08:50:03.322Z,12.33
2018-02-05T08:52:31.721Z,12.97
2018-02-05T08:55:00.031Z,11.90
2018-02-05T08:57:28.318Z,12.03
2018-02-05T08:59:57.370Z,12.20
2018-02-05T09:02:25.624Z,12.10
2018-02-05T09:04:53.897Z,12.03
2018-02-05T09:07:22.176Z,12.70
2018-02-05T09:09:50.541Z,11.20
2018-02-05T09:12:18.802Z,10.67
2018-02-05T09:14:47.068Z,12.00
2018-02-05T09:17:16.105Z,10.77
2018-02-05T09:19:44.367Z,11.03
2018-02-05T09:22:12.680Z,11.00
2018-02-05T09:24:40.939Z,11.10
2018-02-05T09:27:09.272Z,11.47
2018-02-05T09:29:37.555Z,11.40
2018-02-05T09:32:05.798Z,11.07
2018-02-05T09:34:34.880Z,11.20
2018-02-05T09:37:03.971Z,11.23
2018-02-05T09:39:32.457Z,9.57
2018-02-05T09:42:00.838Z,10.57
2018-02-05T09:44:29.878Z,9.90
2018-02-05T09:46:58.145Z,10.87
2018-02-05T09:49:26.436Z,10.30
2018-02-05T09:51:54.715Z,10.20
2018-02-05T09:54:22.990Z,10.10
2018-02-05T09:56:51.279Z,9.50
2018-02-05T09:59:19.521Z,9.97
2018-02-05T10:01:47.801Z,7.87
2018-02-05T10:04:16.074Z,9.53
2018-02-05T10:06:45.074Z,9.60
2018-02-05T10:09:13.478Z,10.33
2018-02-05T10:11:41.770Z,10.57
2018-02-05T10:14:10.014Z,10.70
2018-02-05T10:16:38.277Z,9.93
2018-02-05T10:19:06.518Z,9.50
2018-02-05T10:21:35.542Z,9.20
2018-02-05T10:24:03.910Z,8.97
2018-02-05T10:26:32.166Z,8.97
2018-02-05T10:29:00.492Z,8.70
2018-02-05T10:31:28.787Z,9.87
2018-02-05T10:33:57.026Z,9.30
2018-02-05T10:36:25.303Z,8.50
2018-02-05T10:38:53.559Z,9.37
2018-02-05T10:41:21.806Z,8.90
2018-02-05T10:43:50.791Z,7.57
2018-02-05T10:46:19.058Z,8.77
2018-02-05T10:48:47.430Z,9.27
2018-02-05T10:51:15.655Z,9.40
2018-02-05T10:53:44.085Z,9.00
2018-02-05T10:56:12.345Z,7.83
2018-02-05T10:58:40.700Z,8.50
2018-02-05T11:01:08.951Z,8.90
2018-02-05T11:03:37.277Z,8.70
2018-02-05T11:06:05.522Z,9.65
2018-02-05T11:08:33.784Z,9.33
2018-02-05T11:11:02.166Z,9.07
2018-02-05T11:13:30.404Z,9.43
2018-02-05T11:15:58.689Z,9.43
2018-02-05T11:18:27.713Z,8.37
2018-02-05T11:20:56.009Z,8.70
2018-02-05T11:23:24.272Z,8.67
2018-02-05T11:25:52.608Z,8.83
2018-02-05T11:28:21.628Z,9.07
2018-02-05T11:30:49.895Z,8.27
2018-02-05T11:33:18.135Z,8.77
2018-02-05T11:35:46.441Z,8.37
2018-02-05T11:38:14.734Z,9.30
2018-02-05T11:40:43.050Z,9.33
2018-02-05T11:43:11.277Z,8.40
2018-02-05T11:45:39.535Z,8.00
2018-02-05T11:48:07.774Z,8.50
2018-02-05T11:50:36.069Z,9.47
2018-02-05T11:53:05.086Z,8.17
2018-02-05T11:55:33.321Z,8.57
2018-02-05T11:58:01.591Z,9.20
2018-02-05T12:00:29.821Z,8.90
2018-02-05T12:02:58.081Z,8.70
2018-02-05T12:05:26.339Z,8.77
2018-02-05T12:07:54.627Z,7.60
2018-02-05T12:10:22.877Z,8.60
2018-02-05T12:12:52.010Z,8.80
2018-02-05T12:15:20.442Z,7.60
2018-02-05T12:17:48.681Z,8.27
2018-02-05T12:20:16.986Z,8.30
2018-02-05T12:22:45.323Z,8.63
2018-02-05T12:25:13.596Z,8.07
2018-02-05T12:27:41.883Z,8.37
2018-02-05T12:30:10.160Z,8.07
2018-02-05T12:32:38.402Z,8.00
2018-02-05T12:35:06.674Z,8.53
2018-02-05T12:37:35.014Z,7.93
2018-02-05T12:40:03.265Z,7.53
2018-02-05T12:42:31.523Z,8.53
2018-02-05T12:44:59.832Z,7.33
2018-02-05T12:47:28.087Z,8.80
2018-02-05T12:49:56.334Z,8.30
2018-02-05T12:52:24.585Z,8.90
2018-02-05T12:54:52.840Z,8.37
2018-02-05T12:57:21.882Z,7.50
2018-02-05T12:59:50.255Z,8.40
2018-02-05T13:02:18.508Z,6.20
2018-02-05T13:04:46.786Z,8.27
2018-02-05T13:07:15.185Z,8.33
2018-02-05T13:09:43.441Z,8.00
2018-02-05T13:12:11.730Z,8.07
2018-02-05T13:14:40.027Z,8.17
2018-02-05T13:17:08.300Z,8.50
2018-02-05T13:19:36.571Z,7.90
2018-02-05T13:22:04.883Z,7.73
2018-02-05T13:24:34.141Z,7.87
2018-02-05T13:27:02.561Z,7.37
2018-02-05T13:29:30.827Z,7.83
2018-02-05T13:31:59.073Z,7.63
2018-02-05T13:34:27.451Z,7.30
2018-02-05T13:36:55.730Z,7.43
2018-02-05T13:39:24.093Z,7.43
2018-02-05T13:41:52.355Z,7.43
2018-02-05T13:44:20.605Z,7.23
2018-02-05T13:46:49.637Z,6.87
2018-02-05T13:49:17.918Z,6.00
2018-02-05T13:51:46.191Z,6.53
2018-02-05T13:54:14.496Z,6.70
2018-02-05T13:56:43.521Z,7.00
2018-02-05T13:59:12.551Z,6.70
2018-02-05T14:01:40.819Z,6.67
2018-02-05T14:04:09.129Z,6.83
2018-02-05T14:06:37.390Z,6.23
2018-02-05T14:09:05.635Z,5.90
2018-02-05T14:11:33.897Z,6.53
2018-02-05T14:14:02.171Z,6.40
2018-02-05T14:16:30.430Z,6.60
2018-02-05T14:18:58.789Z,6.50
2018-02-05T14:21:27.094Z,6.83
2018-02-05T14:23:55.415Z,6.73
2018-02-05T14:26:23.712Z,6.30
2018-02-05T14:28:51.954Z,6.50
2018-02-05T14:31:20.237Z,6.80
2018-02-05T14:33:48.482Z,6.03
2018-02-05T14:36:16.749Z,6.90
2018-02-05T14:38:45.769Z,6.03
2018-02-05T14:41:14.003Z,6.77
2018-02-05T14:43:43.034Z,6.77
2018-02-05T14:46:11.288Z,7.10
2018-02-05T14:48:40.302Z,7.27
2018-02-05T14:51:08.547Z,6.73
2018-02-05T14:53:36.850Z,6.30
2018-02-05T14:56:05.214Z,7.20
2018-02-05T14:58:33.507Z,7.10
2018-02-05T15:01:01.765Z,7.73
2018-02-05T15:03:30.097Z,8.70
2018-02-05T15:05:58.333Z,8.77
2018-02-05T15:08:26.599Z,8.70
2018-02-05T15:10:54.866Z,8.50
2018-02-05T15:13:23.345Z,8.33
2018-02-05T15:15:51.602Z,8.77
2018-02-05T15:18:19.863Z,9.40
2018-02-05T15:20:48.159Z,9.37
2018-02-05T15:23:16.415Z,8.83
2018-02-05T15:25:45.465Z,10.07
2018-02-05T15:28:13.724Z,9.77
2018-02-05T15:30:42.139Z,10.20
2018-02-05T15:33:11.383Z,11.17
2018-02-05T15:35:39.806Z,11.57
2018-02-05T15:38:09.613Z,11.50
2018-02-05T15:40:37.856Z,11.23
2018-02-05T15:43:06.108Z,11.87
2018-02-05T15:45:34.374Z,11.20
2018-02-05T15:48:02.787Z,10.50
2018-02-05T15:50:31.058Z,11.00
2018-02-05T15:52:59.356Z,10.10
2018-02-05T15:55:27.615Z,10.33
2018-02-05T15:57:56.002Z,11.10
2018-02-05T16:00:24.246Z,11.20
2018-02-05T16:02:52.535Z,11.00
2018-02-05T16:05:20.828Z,11.27
2018-02-05T16:07:49.182Z,9.97
2018-02-05T16:10:17.418Z,10.93
2018-02-05T16:12:46.456Z,11.00
2018-02-05T16:15:14.806Z,11.20
2018-02-05T16:17:43.107Z,10.77
2018-02-05T16:20:11.459Z,11.10
2018-02-05T16:22:39.754Z,10.23
2018-02-05T16:25:08.038Z,10.27
2018-02-05T16:27:36.294Z,10.97
2018-02-05T16:30:04.559Z,10.80
2018-02-05T16:32:33.753Z,11.17
2018-02-05T16:35:02.035Z,10.00
2018-02-05T16:37:30.275Z,11.23
2018-02-05T16:39:59.334Z,11.37
2018-02-05T16:42:27.665Z,11.80
2018-02-05T16:44:56.759Z,10.93
2018-02-05T16:47:25.973Z,12.97
2018-02-05T16:49:54.293Z,11.40
2018-02-05T16:52:22.606Z,10.73
2018-02-05T16:54:51.646Z,11.90
2018-02-05T16:57:19.961Z,12.20
2018-02-05T16:59:48.983Z,15.77
2018-02-05T17:02:17.378Z,12.93
2018-02-05T17:04:45.780Z,14.70
2018-02-05T17:07:14.190Z,12.53
2018-02-05T17:09:43.237Z,12.80
2018-02-05T17:12:11.560Z,13.17
2018-02-05T17:14:40.790Z,13.53
2018-02-05T17:17:09.051Z,14.53
2018-02-05T17:19:37.309Z,13.63
2018-02-05T17:22:05.596Z,13.77
2018-02-05T17:24:33.907Z,13.93
2018-02-05T17:27:02.210Z,12.63
2018-02-05T17:29:30.543Z,15.30
2018-02-05T17:31:58.867Z,13.90
2018-02-05T17:34:27.126Z,13.83
2018-02-05T17:36:55.494Z,13.07
2018-02-05T17:39:23.782Z,13.50
2018-02-05T17:41:52.038Z,13.93
2018-02-05T17:44:20.333Z,14.97
2018-02-05T17:46:48.581Z,14.63
2018-02-05T17:49:17.343Z,14.47
2018-02-05T17:51:46.370Z,13.43
2018-02-05T17:54:14.702Z,13.93
2018-02-05T17:56:43.723Z,13.87
2018-02-05T17:59:12.028Z,13.50
2018-02-05T18:01:40.289Z,14.50
2018-02-05T18:04:08.564Z,14.13
2018-02-05T18:06:36.848Z,14.53
2018-02-05T18:09:05.158Z,13.33
2018-02-05T18:11:34.370Z,12.67
2018-02-05T18:14:02.691Z,13.93
2018-02-05T18:16:31.001Z,13.80
2018-02-05T18:19:00.219Z,13.70
2018-02-05T18:21:28.499Z,14.73
2018-02-05T18:23:56.942Z,13.37
2018-02-05T18:26:27.662Z,12.63
2018-02-05T18:28:55.932Z,13.93
2018-02-05T18:31:24.198Z,15.43
2018-02-05T18:33:52.727Z,13.87
2018-02-05T18:36:21.778Z,14.30
2018-02-05T18:38:50.044Z,13.00
2018-02-05T18:41:18.408Z,14.07
2018-02-05T18:43:46.711Z,15.67
2018-02-05T18:46:15.012Z,15.23
2018-02-05T18:48:43.276Z,13.77
2018-02-05T18:51:11.735Z,16.07
2018-02-05T18:53:41.425Z,15.00
2018-02-05T18:56:09.706Z,16.10
2018-02-05T18:58:38.006Z,15.07
2018-02-05T19:01:06.290Z,15.43
2018-02-05T19:03:35.363Z,14.60
2018-02-05T19:06:03.654Z,14.33
2018-02-05T19:08:31.918Z,13.57
2018-02-05T19:11:00.204Z,13.87
2018-02-05T19:13:29.264Z,13.40
2018-02-05T19:15:57.561Z,14.20
2018-02-05T19:18:25.846Z,14.00
2018-02-05T19:20:54.135Z,14.63
2018-02-05T19:23:22.435Z,15.30
2018-02-05T19:25:50.713Z,15.93
2018-02-05T19:28:19.004Z,14.83
2018-02-05T19:30:47.428Z,14.90
2018-02-05T19:33:15.727Z,14.47
2018-02-05T19:35:43.998Z,14.07
2018-02-05T19:38:12.318Z,15.10
2018-02-05T19:40:40.667Z,15.33
2018-02-05T19:43:08.932Z,15.50
2018-02-05T19:45:37.223Z,14.70
2018-02-05T19:48:05.499Z,14.83
2018-02-05T19:50:33.798Z,14.90
2018-02-05T19:53:02.078Z,14.90
2018-02-05T19:55:30.406Z,14.57
2018-02-05T19:57:58.903Z,15.70
2018-02-05T20:00:27.211Z,15.73
2018-02-05T20:02:55.502Z,15.03
2018-02-05T20:05:23.795Z,15.93
2018-02-05T20:07:52.097Z,15.47
2018-02-05T20:10:20.621Z,16.80
2018-02-05T20:12:48.884Z,16.57
2018-02-05T20:15:17.182Z,16.30
2018-02-05T20:17:45.446Z,15.73
2018-02-05T20:20:13.819Z,14.90
2018-02-05T20:22:42.100Z,17.57
2018-02-05T20:25:10.394Z,16.80
2018-02-05T20:27:38.682Z,17.17
2018-02-05T20:30:07.755Z,16.43
2018-02-05T20:32:36.073Z,16.63
2018-02-05T20:35:04.386Z,16.73
2018-02-05T20:37:32.699Z,16.80
2018-02-05T20:40:00.948Z,16.20
2018-02-05T20:42:29.258Z,16.37
2018-02-05T20:44:57.682Z,17.37
2018-02-05T20:47:26.120Z,15.90
2018-02-05T20:49:55.169Z,17.57
2018-02-05T20:52:23.449Z,17.83
2018-02-05T20:54:51.721Z,16.87
2018-02-05T20:57:19.970Z,18.40
2018-02-05T20:59:48.221Z,18.80
2018-02-05T21:02:16.526Z,19.47
2018-02-05T21:04:44.764Z,16.83
2018-02-05T21:07:13.035Z,17.90
2018-02-05T21:09:41.375Z,17.33
2018-02-05T21:12:11.198Z,16.77
2018-02-05T21:14:40.255Z,16.87
2018-02-05T21:17:08.534Z,16.90
2018-02-05T21:19:36.791Z,17.53
2018-02-05T21:22:05.074Z,17.50
2018-02-05T21:24:33.368Z,16.93
2018-02-05T21:27:01.607Z,18.23
2018-02-05T21:29:29.898Z,17.40
2018-02-05T21:31:58.190Z,17.70
2018-02-05T21:34:26.505Z,17.20
2018-02-05T21:36:55.624Z,18.03
2018-02-05T21:39:23.938Z,18.13
2018-02-05T21:41:52.197Z,17.87
2018-02-05T21:44:22.286Z,18.07
2018-02-05T21:46:50.582Z,17.50
2018-02-05T21:49:18.847Z,17.03
2018-02-05T21:51:47.135Z,16.90
2018-02-05T21:54:15.423Z,16.53
2018-02-05T21:56:43.691Z,18.33
2018-02-05T21:59:11.985Z,18.00
2018-02-05T22:01:40.287Z,19.10
2018-02-05T22:04:08.554Z,18.77
2018-02-05T22:06:36.839Z,17.70
2018-02-05T22:09:05.866Z,18.47
2018-02-05T22:11:34.167Z,18.53
2018-02-05T22:14:02.436Z,19.50
2018-02-05T22:16:30.705Z,17.97
2018-02-05T22:18:58.990Z,19.27
2018-02-05T22:21:27.294Z,18.73
2018-02-05T22:23:55.667Z,19.37
2018-02-05T22:26:25.083Z,18.00
2018-02-05T22:28:53.366Z,18.90
2018-02-05T22:31:22.407Z,18.63
2018-02-05T22:33:50.695Z,20.33
2018-02-05T22:36:19.097Z,18.37
2018-02-05T22:38:47.429Z,20.30
2018-02-05T22:41:15.675Z,19.23
2018-02-05T22:43:43.956Z,18.27
2018-02-05T22:46:12.253Z,18.37
2018-02-05T22:48:40.531Z,20.13
2018-02-05T22:51:08.790Z,18.83
2018-02-05T22:53:37.113Z,18.20
2018-02-05T22:56:05.374Z,20.10
2018-02-05T22:58:33.637Z,19.77
2018-02-05T23:01:01.935Z,18.40
2018-02-05T23:03:30.222Z,19.63
2018-02-05T23:05:58.503Z,18.50
2018-02-05T23:08:26.750Z,20.07
2018-02-05T23:10:55.081Z,20.00
2018-02-05T23:13:23.339Z,19.90
2018-02-05T23:15:52.462Z,20.23
2018-02-05T23:18:20.736Z,22.87
2018-02-05T23:20:49.128Z,21.97
2018-02-05T23:23:17.399Z,22.13
2018-02-05T23:25:45.669Z,21.33
2018-02-05T23:28:13.909Z,22.40
2018-02-05T23:30:42.944Z,20.17
2018-02-05T23:33:11.265Z,19.70
2018-02-05T23:35:40.303Z,20.43
2018-02-05T23:38:08.544Z,19.67
2018-02-05T23:40:37.598Z,22.33
2018-02-05T23:43:05.840Z,20.33
2018-02-05T23:45:34.191Z,19.50
2018-02-05T23:48:02.434Z,20.17
2018-02-05T23:50:30.708Z,20.47
2018-02-05T23:52:59.024Z,20.23
2018-02-05T23:55:28.044Z,20.63
2018-02-05T23:57:56.327Z,20.27
